sensor_id;sensor_type;location;lat;lon;timestamp;temperature;humidity
4874;DHT22;2451;49.970;9.068;2022-11-15T00:00:50;10.70;99.90
4874;DHT22;2451;49.970;9.068;2022-11-15T00:03:17;10.70;99.90
4874;DHT22;2451;49.970;9.068;2022-11-15T00:05:44;10.70;99.90
4874;DHT22;2451;49.970;9.068;2022-11-15T00:08:10;10.70;99.90
4874;DHT22;2451;49.970;9.068;2022-11-15T00:10:36;10.70;99.90
4874;DHT22;2451;49.970;9.068;2022-11-15T00:13:07;10.70;99.90
4874;DHT22;2451;49.970;9.068;2022-11-15T00:15:35;10.70;99.90
4874;DHT22;2451;49.970;9.068;2022-11-15T00:18:02;10.70;99.90
4874;DHT22;2451;49.970;9.068;2022-11-15T00:20:29;10.70;99.90
4874;DHT22;2451;49.970;9.068;2022-11-15T00:22:55;10.70;99.90
4874;DHT22;2451;49.970;9.068;2022-11-15T00:25:20;10.70;99.90
4874;DHT22;2451;49.970;9.068;2022-11-15T00:27:46;10.70;99.90
4874;DHT22;2451;49.970;9.068;2022-11-15T00:30:12;10.60;99.90
4874;DHT22;2451;49.970;9.068;2022-11-15T00:32:37;10.60;99.90
4874;DHT22;2451;49.970;9.068;2022-11-15T00:35:03;10.60;99.90
4874;DHT22;2451;49.970;9.068;2022-11-15T00:37:29;10.60;99.90
4874;DHT22;2451;49.970;9.068;2022-11-15T00:39:54;10.60;99.90
4874;DHT22;2451;49.970;9.068;2022-11-15T00:42:20;10.50;99.90
4874;DHT22;2451;49.970;9.068;2022-11-15T00:44:45;10.50;99.90
4874;DHT22;2451;49.970;9.068;2022-11-15T00:47:11;10.50;99.90
4874;DHT22;2451;49.970;9.068;2022-11-15T00:49:37;10.40;99.90
4874;DHT22;2451;49.970;9.068;2022-11-15T00:52:02;10.30;99.90
4874;DHT22;2451;49.970;9.068;2022-11-15T00:54:28;10.30;99.90
4874;DHT22;2451;49.970;9.068;2022-11-15T00:56:53;10.20;99.90
4874;DHT22;2451;49.970;9.068;2022-11-15T00:59:19;10.20;99.90
4874;DHT22;2451;49.970;9.068;2022-11-15T01:01:45;10.20;99.90
4874;DHT22;2451;49.970;9.068;2022-11-15T01:04:10;10.10;99.90
4874;DHT22;2451;49.970;9.068;2022-11-15T01:06:36;10.10;99.90
4874;DHT22;2451;49.970;9.068;2022-11-15T01:09:01;10.20;99.90
4874;DHT22;2451;49.970;9.068;2022-11-15T01:11:27;10.10;99.90
4874;DHT22;2451;49.970;9.068;2022-11-15T01:13:52;10.10;99.90
4874;DHT22;2451;49.970;9.068;2022-11-15T01:16:19;10.10;99.90
4874;DHT22;2451;49.970;9.068;2022-11-15T01:18:45;10.10;99.90
4874;DHT22;2451;49.970;9.068;2022-11-15T01:21:14;10.10;99.90
4874;DHT22;2451;49.970;9.068;2022-11-15T01:23:40;10.00;99.90
4874;DHT22;2451;49.970;9.068;2022-11-15T01:26:09;10.00;99.90
4874;DHT22;2451;49.970;9.068;2022-11-15T01:28:36;10.00;99.90
4874;DHT22;2451;49.970;9.068;2022-11-15T01:31:05;9.90;99.90
4874;DHT22;2451;49.970;9.068;2022-11-15T01:33:30;9.90;99.90
4874;DHT22;2451;49.970;9.068;2022-11-15T01:36:04;9.90;99.90
4874;DHT22;2451;49.970;9.068;2022-11-15T01:38:30;9.90;99.90
4874;DHT22;2451;49.970;9.068;2022-11-15T01:40:56;9.90;99.90
4874;DHT22;2451;49.970;9.068;2022-11-15T01:43:24;9.90;99.90
4874;DHT22;2451;49.970;9.068;2022-11-15T01:45:55;9.90;99.90
4874;DHT22;2451;49.970;9.068;2022-11-15T01:48:23;9.90;99.90
4874;DHT22;2451;49.970;9.068;2022-11-15T01:50:51;9.90;99.90
4874;DHT22;2451;49.970;9.068;2022-11-15T01:53:18;9.90;99.90
4874;DHT22;2451;49.970;9.068;2022-11-15T01:55:45;9.90;99.90
4874;DHT22;2451;49.970;9.068;2022-11-15T01:58:10;9.90;99.90
4874;DHT22;2451;49.970;9.068;2022-11-15T02:00:36;9.90;99.90
4874;DHT22;2451;49.970;9.068;2022-11-15T02:03:02;9.90;99.90
4874;DHT22;2451;49.970;9.068;2022-11-15T02:05:29;9.80;99.90
4874;DHT22;2451;49.970;9.068;2022-11-15T02:07:55;9.80;99.90
4874;DHT22;2451;49.970;9.068;2022-11-15T02:10:23;9.80;99.90
4874;DHT22;2451;49.970;9.068;2022-11-15T02:12:49;9.80;99.90
4874;DHT22;2451;49.970;9.068;2022-11-15T02:15:16;9.70;99.90
4874;DHT22;2451;49.970;9.068;2022-11-15T02:17:57;9.70;99.90
4874;DHT22;2451;49.970;9.068;2022-11-15T02:31:40;9.70;99.90
4874;DHT22;2451;49.970;9.068;2022-11-15T02:36:59;9.80;99.90
4874;DHT22;2451;49.970;9.068;2022-11-15T02:39:46;9.70;99.90
4874;DHT22;2451;49.970;9.068;2022-11-15T02:42:31;9.70;99.90
4874;DHT22;2451;49.970;9.068;2022-11-15T02:45:21;9.80;99.90
4874;DHT22;2451;49.970;9.068;2022-11-15T02:47:50;9.80;99.90
4874;DHT22;2451;49.970;9.068;2022-11-15T02:50:21;9.80;99.90
4874;DHT22;2451;49.970;9.068;2022-11-15T02:52:49;9.80;99.90
4874;DHT22;2451;49.970;9.068;2022-11-15T03:01:14;9.80;99.90
4874;DHT22;2451;49.970;9.068;2022-11-15T03:06:24;9.70;99.90
4874;DHT22;2451;49.970;9.068;2022-11-15T03:09:04;9.70;99.90
4874;DHT22;2451;49.970;9.068;2022-11-15T03:11:39;9.70;99.90
4874;DHT22;2451;49.970;9.068;2022-11-15T03:19:34;9.70;99.90
4874;DHT22;2451;49.970;9.068;2022-11-15T03:22:03;9.70;99.90
4874;DHT22;2451;49.970;9.068;2022-11-15T03:24:30;9.70;99.90
4874;DHT22;2451;49.970;9.068;2022-11-15T03:26:59;9.80;99.90
4874;DHT22;2451;49.970;9.068;2022-11-15T03:29:29;9.80;99.90
4874;DHT22;2451;49.970;9.068;2022-11-15T03:32:10;9.80;99.90
4874;DHT22;2451;49.970;9.068;2022-11-15T03:34:41;9.80;99.90
4874;DHT22;2451;49.970;9.068;2022-11-15T03:37:10;9.70;99.90
4874;DHT22;2451;49.970;9.068;2022-11-15T03:39:37;9.70;99.90
4874;DHT22;2451;49.970;9.068;2022-11-15T03:42:27;9.70;99.90
4874;DHT22;2451;49.970;9.068;2022-11-15T03:45:14;9.60;99.90
4874;DHT22;2451;49.970;9.068;2022-11-15T03:47:45;9.60;99.90
4874;DHT22;2451;49.970;9.068;2022-11-15T03:50:17;9.50;99.90
4874;DHT22;2451;49.970;9.068;2022-11-15T03:52:45;9.50;99.90
4874;DHT22;2451;49.970;9.068;2022-11-15T03:55:15;9.40;99.90
4874;DHT22;2451;49.970;9.068;2022-11-15T03:57:41;9.40;99.90
4874;DHT22;2451;49.970;9.068;2022-11-15T04:00:07;9.40;99.90
4874;DHT22;2451;49.970;9.068;2022-11-15T04:02:33;9.40;99.90
4874;DHT22;2451;49.970;9.068;2022-11-15T04:04:58;9.30;99.90
4874;DHT22;2451;49.970;9.068;2022-11-15T04:07:25;9.30;99.90
4874;DHT22;2451;49.970;9.068;2022-11-15T04:09:51;9.30;99.90
4874;DHT22;2451;49.970;9.068;2022-11-15T04:12:37;9.30;99.90
4874;DHT22;2451;49.970;9.068;2022-11-15T04:15:04;9.30;99.90
4874;DHT22;2451;49.970;9.068;2022-11-15T04:17:56;9.30;99.90
4874;DHT22;2451;49.970;9.068;2022-11-15T04:20:29;9.30;99.90
4874;DHT22;2451;49.970;9.068;2022-11-15T04:23:15;9.30;99.90
4874;DHT22;2451;49.970;9.068;2022-11-15T04:26:03;9.30;99.90
4874;DHT22;2451;49.970;9.068;2022-11-15T04:28:29;9.30;99.90
4874;DHT22;2451;49.970;9.068;2022-11-15T04:30:56;9.30;99.90
4874;DHT22;2451;49.970;9.068;2022-11-15T04:33:22;9.30;99.90
4874;DHT22;2451;49.970;9.068;2022-11-15T04:35:47;9.30;99.90
4874;DHT22;2451;49.970;9.068;2022-11-15T04:38:34;9.20;99.90
4874;DHT22;2451;49.970;9.068;2022-11-15T04:40:59;9.20;99.90
4874;DHT22;2451;49.970;9.068;2022-11-15T04:43:25;9.20;99.90
4874;DHT22;2451;49.970;9.068;2022-11-15T04:45:51;9.20;99.90
4874;DHT22;2451;49.970;9.068;2022-11-15T04:48:16;9.20;99.90
4874;DHT22;2451;49.970;9.068;2022-11-15T04:50:42;9.20;99.90
4874;DHT22;2451;49.970;9.068;2022-11-15T04:53:07;9.30;99.90
4874;DHT22;2451;49.970;9.068;2022-11-15T04:55:33;9.30;99.90
4874;DHT22;2451;49.970;9.068;2022-11-15T04:58:02;9.20;99.90
4874;DHT22;2451;49.970;9.068;2022-11-15T05:00:28;9.30;99.90
4874;DHT22;2451;49.970;9.068;2022-11-15T05:02:55;9.30;99.90
4874;DHT22;2451;49.970;9.068;2022-11-15T05:05:39;9.30;99.90
4874;DHT22;2451;49.970;9.068;2022-11-15T05:08:05;9.30;99.90
4874;DHT22;2451;49.970;9.068;2022-11-15T05:10:30;9.30;99.90
4874;DHT22;2451;49.970;9.068;2022-11-15T05:12:56;9.30;99.90
4874;DHT22;2451;49.970;9.068;2022-11-15T05:15:21;9.30;99.90
4874;DHT22;2451;49.970;9.068;2022-11-15T05:17:47;9.30;99.90
4874;DHT22;2451;49.970;9.068;2022-11-15T05:20:13;9.30;99.90
4874;DHT22;2451;49.970;9.068;2022-11-15T05:22:39;9.30;99.90
4874;DHT22;2451;49.970;9.068;2022-11-15T05:25:05;9.20;99.90
4874;DHT22;2451;49.970;9.068;2022-11-15T05:27:31;9.20;99.90
4874;DHT22;2451;49.970;9.068;2022-11-15T05:29:56;9.20;99.90
4874;DHT22;2451;49.970;9.068;2022-11-15T05:32:22;9.20;99.90
4874;DHT22;2451;49.970;9.068;2022-11-15T05:34:48;9.20;99.90
4874;DHT22;2451;49.970;9.068;2022-11-15T05:37:14;9.20;99.90
4874;DHT22;2451;49.970;9.068;2022-11-15T05:39:40;9.20;99.90
4874;DHT22;2451;49.970;9.068;2022-11-15T05:42:11;9.20;99.90
4874;DHT22;2451;49.970;9.068;2022-11-15T05:44:40;9.10;99.90
4874;DHT22;2451;49.970;9.068;2022-11-15T05:47:08;9.10;99.90
4874;DHT22;2451;49.970;9.068;2022-11-15T05:49:36;9.10;99.90
4874;DHT22;2451;49.970;9.068;2022-11-15T05:52:05;9.20;99.90
4874;DHT22;2451;49.970;9.068;2022-11-15T05:54:32;9.20;99.90
4874;DHT22;2451;49.970;9.068;2022-11-15T05:56:58;9.10;99.90
4874;DHT22;2451;49.970;9.068;2022-11-15T05:59:26;9.10;99.90
4874;DHT22;2451;49.970;9.068;2022-11-15T06:01:53;9.10;99.90
4874;DHT22;2451;49.970;9.068;2022-11-15T06:04:19;9.10;99.90
4874;DHT22;2451;49.970;9.068;2022-11-15T06:06:44;9.00;99.90
4874;DHT22;2451;49.970;9.068;2022-11-15T06:09:10;9.00;99.90
4874;DHT22;2451;49.970;9.068;2022-11-15T06:11:35;9.00;99.90
4874;DHT22;2451;49.970;9.068;2022-11-15T06:14:01;9.00;99.90
4874;DHT22;2451;49.970;9.068;2022-11-15T06:16:26;9.00;99.90
4874;DHT22;2451;49.970;9.068;2022-11-15T06:18:52;9.00;99.90
4874;DHT22;2451;49.970;9.068;2022-11-15T06:21:18;9.00;99.90
4874;DHT22;2451;49.970;9.068;2022-11-15T06:23:43;9.00;99.90
4874;DHT22;2451;49.970;9.068;2022-11-15T06:26:09;9.00;99.90
4874;DHT22;2451;49.970;9.068;2022-11-15T06:28:34;9.00;99.90
4874;DHT22;2451;49.970;9.068;2022-11-15T06:31:08;9.00;99.90
4874;DHT22;2451;49.970;9.068;2022-11-15T06:33:34;9.00;99.90
4874;DHT22;2451;49.970;9.068;2022-11-15T06:36:04;9.10;99.90
4874;DHT22;2451;49.970;9.068;2022-11-15T06:38:30;9.00;99.90
4874;DHT22;2451;49.970;9.068;2022-11-15T06:41:04;9.00;99.90
4874;DHT22;2451;49.970;9.068;2022-11-15T06:43:30;9.00;99.90
4874;DHT22;2451;49.970;9.068;2022-11-15T06:45:58;9.00;99.90
4874;DHT22;2451;49.970;9.068;2022-11-15T06:48:24;9.00;99.90
4874;DHT22;2451;49.970;9.068;2022-11-15T06:50:51;9.00;99.90
4874;DHT22;2451;49.970;9.068;2022-11-15T06:53:17;9.00;99.90
4874;DHT22;2451;49.970;9.068;2022-11-15T06:55:42;9.00;99.90
4874;DHT22;2451;49.970;9.068;2022-11-15T06:58:08;9.00;99.90
4874;DHT22;2451;49.970;9.068;2022-11-15T07:00:33;9.00;99.90
4874;DHT22;2451;49.970;9.068;2022-11-15T07:03:02;9.00;99.90
4874;DHT22;2451;49.970;9.068;2022-11-15T07:05:28;9.00;99.90
4874;DHT22;2451;49.970;9.068;2022-11-15T07:07:55;9.10;99.90
4874;DHT22;2451;49.970;9.068;2022-11-15T07:10:21;9.10;99.90
4874;DHT22;2451;49.970;9.068;2022-11-15T07:12:49;9.10;99.90
4874;DHT22;2451;49.970;9.068;2022-11-15T07:15:16;9.10;99.90
4874;DHT22;2451;49.970;9.068;2022-11-15T07:17:41;9.20;99.90
4874;DHT22;2451;49.970;9.068;2022-11-15T07:20:08;9.20;99.90
4874;DHT22;2451;49.970;9.068;2022-11-15T07:22:33;9.40;99.90
4874;DHT22;2451;49.970;9.068;2022-11-15T07:24:59;9.70;99.90
4874;DHT22;2451;49.970;9.068;2022-11-15T07:27:24;9.70;99.90
4874;DHT22;2451;49.970;9.068;2022-11-15T07:29:50;9.90;99.90
4874;DHT22;2451;49.970;9.068;2022-11-15T07:32:16;9.90;99.90
4874;DHT22;2451;49.970;9.068;2022-11-15T07:34:41;10.00;99.90
4874;DHT22;2451;49.970;9.068;2022-11-15T07:37:07;10.10;99.90
4874;DHT22;2451;49.970;9.068;2022-11-15T07:39:32;10.10;99.90
4874;DHT22;2451;49.970;9.068;2022-11-15T07:41:59;10.10;99.90
4874;DHT22;2451;49.970;9.068;2022-11-15T07:44:48;10.40;99.90
4874;DHT22;2451;49.970;9.068;2022-11-15T07:47:14;11.10;99.90
4874;DHT22;2451;49.970;9.068;2022-11-15T07:49:39;11.70;99.90
4874;DHT22;2451;49.970;9.068;2022-11-15T07:52:08;12.20;99.90
4874;DHT22;2451;49.970;9.068;2022-11-15T07:54:33;12.70;99.90
4874;DHT22;2451;49.970;9.068;2022-11-15T07:57:00;13.00;99.90
4874;DHT22;2451;49.970;9.068;2022-11-15T07:59:25;13.00;99.90
4874;DHT22;2451;49.970;9.068;2022-11-15T08:01:52;12.80;99.90
4874;DHT22;2451;49.970;9.068;2022-11-15T08:04:18;12.60;99.90
4874;DHT22;2451;49.970;9.068;2022-11-15T08:06:43;12.30;99.90
4874;DHT22;2451;49.970;9.068;2022-11-15T08:09:09;12.00;99.90
4874;DHT22;2451;49.970;9.068;2022-11-15T08:11:34;11.60;99.90
4874;DHT22;2451;49.970;9.068;2022-11-15T08:14:00;11.40;99.90
4874;DHT22;2451;49.970;9.068;2022-11-15T08:16:25;11.20;99.90
4874;DHT22;2451;49.970;9.068;2022-11-15T08:18:51;11.10;99.90
4874;DHT22;2451;49.970;9.068;2022-11-15T08:21:19;11.10;99.90
4874;DHT22;2451;49.970;9.068;2022-11-15T08:23:45;11.10;99.90
4874;DHT22;2451;49.970;9.068;2022-11-15T08:26:11;11.20;99.90
4874;DHT22;2451;49.970;9.068;2022-11-15T08:28:36;11.30;99.90
4874;DHT22;2451;49.970;9.068;2022-11-15T08:31:02;11.30;99.90
4874;DHT22;2451;49.970;9.068;2022-11-15T08:33:29;11.40;99.90
4874;DHT22;2451;49.970;9.068;2022-11-15T08:35:58;11.50;99.90
4874;DHT22;2451;49.970;9.068;2022-11-15T08:38:24;11.60;99.90
4874;DHT22;2451;49.970;9.068;2022-11-15T08:40:58;11.70;99.90
4874;DHT22;2451;49.970;9.068;2022-11-15T08:43:25;11.70;99.90
4874;DHT22;2451;49.970;9.068;2022-11-15T08:45:51;11.70;99.90
4874;DHT22;2451;49.970;9.068;2022-11-15T08:48:16;11.80;99.90
4874;DHT22;2451;49.970;9.068;2022-11-15T08:50:42;12.00;99.90
4874;DHT22;2451;49.970;9.068;2022-11-15T08:53:09;12.00;99.90
4874;DHT22;2451;49.970;9.068;2022-11-15T08:55:39;12.10;99.90
4874;DHT22;2451;49.970;9.068;2022-11-15T08:58:04;12.30;99.90
4874;DHT22;2451;49.970;9.068;2022-11-15T09:00:30;12.40;99.90
4874;DHT22;2451;49.970;9.068;2022-11-15T09:02:56;12.50;99.90
4874;DHT22;2451;49.970;9.068;2022-11-15T09:05:22;12.60;99.90
4874;DHT22;2451;49.970;9.068;2022-11-15T09:07:52;12.70;99.90
4874;DHT22;2451;49.970;9.068;2022-11-15T09:10:17;12.70;99.90
4874;DHT22;2451;49.970;9.068;2022-11-15T09:12:43;12.70;99.90
4874;DHT22;2451;49.970;9.068;2022-11-15T09:15:09;12.60;99.90
4874;DHT22;2451;49.970;9.068;2022-11-15T09:17:34;12.60;99.90
4874;DHT22;2451;49.970;9.068;2022-11-15T09:20:00;12.50;99.90
4874;DHT22;2451;49.970;9.068;2022-11-15T09:22:25;12.50;99.90
4874;DHT22;2451;49.970;9.068;2022-11-15T09:24:51;12.60;99.90
4874;DHT22;2451;49.970;9.068;2022-11-15T09:27:17;12.70;99.90
4874;DHT22;2451;49.970;9.068;2022-11-15T09:29:42;12.70;99.90
4874;DHT22;2451;49.970;9.068;2022-11-15T09:32:08;12.70;99.90
4874;DHT22;2451;49.970;9.068;2022-11-15T09:34:34;12.70;99.90
4874;DHT22;2451;49.970;9.068;2022-11-15T09:36:59;12.70;99.90
4874;DHT22;2451;49.970;9.068;2022-11-15T09:39:25;12.60;99.90
4874;DHT22;2451;49.970;9.068;2022-11-15T09:50:15;12.70;99.90
4874;DHT22;2451;49.970;9.068;2022-11-15T09:52:44;12.70;99.90
4874;DHT22;2451;49.970;9.068;2022-11-15T09:55:12;12.70;99.90
4874;DHT22;2451;49.970;9.068;2022-11-15T09:57:43;12.70;99.90
4874;DHT22;2451;49.970;9.068;2022-11-15T10:00:19;12.80;99.90
4874;DHT22;2451;49.970;9.068;2022-11-15T10:05:20;12.80;99.90
4874;DHT22;2451;49.970;9.068;2022-11-15T10:10:43;12.80;99.90
4874;DHT22;2451;49.970;9.068;2022-11-15T10:13:22;12.80;99.90
4874;DHT22;2451;49.970;9.068;2022-11-15T10:15:48;12.80;99.90
4874;DHT22;2451;49.970;9.068;2022-11-15T10:18:34;12.90;99.90
4874;DHT22;2451;49.970;9.068;2022-11-15T10:21:15;12.90;99.90
4874;DHT22;2451;49.970;9.068;2022-11-15T10:23:42;13.00;99.90
4874;DHT22;2451;49.970;9.068;2022-11-15T10:26:12;13.00;99.90
4874;DHT22;2451;49.970;9.068;2022-11-15T10:28:38;13.10;99.90
4874;DHT22;2451;49.970;9.068;2022-11-15T10:31:25;13.10;99.90
4874;DHT22;2451;49.970;9.068;2022-11-15T10:33:56;13.20;99.90
4874;DHT22;2451;49.970;9.068;2022-11-15T10:36:24;13.20;99.90
4874;DHT22;2451;49.970;9.068;2022-11-15T10:41:28;13.30;99.90
4874;DHT22;2451;49.970;9.068;2022-11-15T10:46:32;13.30;99.90
4874;DHT22;2451;49.970;9.068;2022-11-15T10:49:27;13.30;99.90
4874;DHT22;2451;49.970;9.068;2022-11-15T10:51:59;13.20;99.90
4874;DHT22;2451;49.970;9.068;2022-11-15T10:54:37;13.20;99.90
4874;DHT22;2451;49.970;9.068;2022-11-15T10:57:13;13.20;99.90
4874;DHT22;2451;49.970;9.068;2022-11-15T10:59:46;13.10;99.90
4874;DHT22;2451;49.970;9.068;2022-11-15T11:02:35;13.10;99.90
4874;DHT22;2451;49.970;9.068;2022-11-15T11:05:04;13.10;99.90
4874;DHT22;2451;49.970;9.068;2022-11-15T11:07:34;13.00;99.90
4874;DHT22;2451;49.970;9.068;2022-11-15T11:10:26;13.00;99.90
4874;DHT22;2451;49.970;9.068;2022-11-15T11:12:52;13.10;99.90
4874;DHT22;2451;49.970;9.068;2022-11-15T11:15:18;13.10;99.90
4874;DHT22;2451;49.970;9.068;2022-11-15T11:20:31;13.10;99.90
4874;DHT22;2451;49.970;9.068;2022-11-15T11:25:54;13.20;99.90
4874;DHT22;2451;49.970;9.068;2022-11-15T11:28:32;13.30;99.90
4874;DHT22;2451;49.970;9.068;2022-11-15T11:31:34;13.30;99.90
4874;DHT22;2451;49.970;9.068;2022-11-15T11:41:00;13.40;99.90
4874;DHT22;2451;49.970;9.068;2022-11-15T11:46:27;13.50;99.90
4874;DHT22;2451;49.970;9.068;2022-11-15T11:48:58;13.60;99.90
4874;DHT22;2451;49.970;9.068;2022-11-15T11:51:54;13.60;99.90
4874;DHT22;2451;49.970;9.068;2022-11-15T11:57:32;13.80;99.90
4874;DHT22;2451;49.970;9.068;2022-11-15T12:00:04;13.90;99.90
4874;DHT22;2451;49.970;9.068;2022-11-15T12:02:44;14.00;99.90
4874;DHT22;2451;49.970;9.068;2022-11-15T12:05:18;14.20;99.90
4874;DHT22;2451;49.970;9.068;2022-11-15T12:07:47;14.40;99.90
4874;DHT22;2451;49.970;9.068;2022-11-15T12:10:22;14.50;99.90
4874;DHT22;2451;49.970;9.068;2022-11-15T12:13:16;14.50;99.90
4874;DHT22;2451;49.970;9.068;2022-11-15T12:15:51;14.60;99.90
4874;DHT22;2451;49.970;9.068;2022-11-15T12:18:17;14.90;99.90
4874;DHT22;2451;49.970;9.068;2022-11-15T12:20:57;15.30;99.90
4874;DHT22;2451;49.970;9.068;2022-11-15T12:23:29;15.70;99.90
4874;DHT22;2451;49.970;9.068;2022-11-15T12:26:09;16.00;99.90
4874;DHT22;2451;49.970;9.068;2022-11-15T12:28:45;16.10;99.90
4874;DHT22;2451;49.970;9.068;2022-11-15T12:31:26;16.20;99.90
4874;DHT22;2451;49.970;9.068;2022-11-15T12:33:56;16.40;99.90
4874;DHT22;2451;49.970;9.068;2022-11-15T12:41:32;16.90;99.90
4874;DHT22;2451;49.970;9.068;2022-11-15T12:43:58;17.00;99.90
4874;DHT22;2451;49.970;9.068;2022-11-15T12:59:58;16.80;99.90
4874;DHT22;2451;49.970;9.068;2022-11-15T13:18:39;16.30;99.90
4874;DHT22;2451;49.970;9.068;2022-11-15T13:21:19;16.00;99.90
4874;DHT22;2451;49.970;9.068;2022-11-15T13:24:03;15.90;99.90
4874;DHT22;2451;49.970;9.068;2022-11-15T13:26:29;15.90;99.90
4874;DHT22;2451;49.970;9.068;2022-11-15T13:28:56;15.90;99.90
4874;DHT22;2451;49.970;9.068;2022-11-15T13:33:59;15.90;99.90
4874;DHT22;2451;49.970;9.068;2022-11-15T13:36:34;15.90;99.90
4874;DHT22;2451;49.970;9.068;2022-11-15T13:39:14;15.80;99.90
4874;DHT22;2451;49.970;9.068;2022-11-15T13:41:50;15.60;99.90
4874;DHT22;2451;49.970;9.068;2022-11-15T13:44:22;15.50;99.90
4874;DHT22;2451;49.970;9.068;2022-11-15T13:46:48;15.40;99.90
4874;DHT22;2451;49.970;9.068;2022-11-15T13:49:30;15.30;99.90
4874;DHT22;2451;49.970;9.068;2022-11-15T13:51:56;15.30;99.90
4874;DHT22;2451;49.970;9.068;2022-11-15T13:54:32;15.40;99.90
4874;DHT22;2451;49.970;9.068;2022-11-15T13:57:09;15.40;99.90
4874;DHT22;2451;49.970;9.068;2022-11-15T13:59:43;15.40;99.90
4874;DHT22;2451;49.970;9.068;2022-11-15T14:02:16;15.40;99.90
4874;DHT22;2451;49.970;9.068;2022-11-15T14:04:52;15.30;99.90
4874;DHT22;2451;49.970;9.068;2022-11-15T14:07:21;15.20;99.90
4874;DHT22;2451;49.970;9.068;2022-11-15T14:09:46;15.10;99.90
4874;DHT22;2451;49.970;9.068;2022-11-15T14:12:31;15.10;99.90
4874;DHT22;2451;49.970;9.068;2022-11-15T14:14:59;15.00;99.90
4874;DHT22;2451;49.970;9.068;2022-11-15T14:19:54;14.80;99.90
4874;DHT22;2451;49.970;9.068;2022-11-15T14:22:21;14.80;99.90
4874;DHT22;2451;49.970;9.068;2022-11-15T14:25:13;14.70;99.90
4874;DHT22;2451;49.970;9.068;2022-11-15T14:27:41;14.60;99.90
4874;DHT22;2451;49.970;9.068;2022-11-15T14:30:13;14.60;99.90
4874;DHT22;2451;49.970;9.068;2022-11-15T14:32:48;14.50;99.90
4874;DHT22;2451;49.970;9.068;2022-11-15T14:35:16;14.50;99.90
4874;DHT22;2451;49.970;9.068;2022-11-15T14:37:42;14.50;99.90
4874;DHT22;2451;49.970;9.068;2022-11-15T14:40:18;14.40;99.90
4874;DHT22;2451;49.970;9.068;2022-11-15T14:42:45;14.40;99.90
4874;DHT22;2451;49.970;9.068;2022-11-15T14:45:20;14.40;99.90
4874;DHT22;2451;49.970;9.068;2022-11-15T14:47:46;14.40;99.90
4874;DHT22;2451;49.970;9.068;2022-11-15T14:50:17;14.30;99.90
4874;DHT22;2451;49.970;9.068;2022-11-15T14:52:43;14.30;99.90
4874;DHT22;2451;49.970;9.068;2022-11-15T14:55:20;14.30;99.90
4874;DHT22;2451;49.970;9.068;2022-11-15T14:57:46;14.30;99.90
4874;DHT22;2451;49.970;9.068;2022-11-15T15:00:13;14.30;99.90
4874;DHT22;2451;49.970;9.068;2022-11-15T15:02:40;14.20;99.90
4874;DHT22;2451;49.970;9.068;2022-11-15T15:05:24;14.20;99.90
4874;DHT22;2451;49.970;9.068;2022-11-15T15:07:50;14.20;99.90
4874;DHT22;2451;49.970;9.068;2022-11-15T15:10:18;14.20;99.90
4874;DHT22;2451;49.970;9.068;2022-11-15T15:12:44;14.10;99.90
4874;DHT22;2451;49.970;9.068;2022-11-15T15:15:15;14.10;99.90
4874;DHT22;2451;49.970;9.068;2022-11-15T15:17:41;14.10;99.90
4874;DHT22;2451;49.970;9.068;2022-11-15T15:20:07;14.00;99.90
4874;DHT22;2451;49.970;9.068;2022-11-15T15:22:33;14.00;99.90
4874;DHT22;2451;49.970;9.068;2022-11-15T15:25:01;14.00;99.90
4874;DHT22;2451;49.970;9.068;2022-11-15T15:27:27;13.90;99.90
4874;DHT22;2451;49.970;9.068;2022-11-15T15:29:53;13.90;99.90
4874;DHT22;2451;49.970;9.068;2022-11-15T15:32:18;13.80;99.90
4874;DHT22;2451;49.970;9.068;2022-11-15T15:34:44;13.80;99.90
4874;DHT22;2451;49.970;9.068;2022-11-15T15:37:25;13.70;99.90
4874;DHT22;2451;49.970;9.068;2022-11-15T15:39:52;13.70;99.90
4874;DHT22;2451;49.970;9.068;2022-11-15T15:42:18;13.60;99.90
4874;DHT22;2451;49.970;9.068;2022-11-15T15:44:45;13.50;99.90
4874;DHT22;2451;49.970;9.068;2022-11-15T15:47:21;13.50;99.90
4874;DHT22;2451;49.970;9.068;2022-11-15T15:49:48;13.40;99.90
4874;DHT22;2451;49.970;9.068;2022-11-15T15:52:14;13.30;99.90
4874;DHT22;2451;49.970;9.068;2022-11-15T15:54:40;13.30;99.90
4874;DHT22;2451;49.970;9.068;2022-11-15T15:57:06;13.20;99.90
4874;DHT22;2451;49.970;9.068;2022-11-15T15:59:32;13.20;99.90
4874;DHT22;2451;49.970;9.068;2022-11-15T16:01:58;13.20;99.90
4874;DHT22;2451;49.970;9.068;2022-11-15T16:04:23;13.10;99.90
4874;DHT22;2451;49.970;9.068;2022-11-15T16:06:49;13.10;99.90
4874;DHT22;2451;49.970;9.068;2022-11-15T16:09:18;13.00;99.90
4874;DHT22;2451;49.970;9.068;2022-11-15T16:12:04;13.00;99.90
4874;DHT22;2451;49.970;9.068;2022-11-15T16:14:31;13.00;99.90
4874;DHT22;2451;49.970;9.068;2022-11-15T16:16:56;13.00;99.90
4874;DHT22;2451;49.970;9.068;2022-11-15T16:19:22;13.00;99.90
4874;DHT22;2451;49.970;9.068;2022-11-15T16:21:47;13.00;99.90
4874;DHT22;2451;49.970;9.068;2022-11-15T16:24:13;13.00;99.90
4874;DHT22;2451;49.970;9.068;2022-11-15T16:26:39;12.90;99.90
4874;DHT22;2451;49.970;9.068;2022-11-15T16:29:04;12.90;99.90
4874;DHT22;2451;49.970;9.068;2022-11-15T16:31:32;12.80;99.90
4874;DHT22;2451;49.970;9.068;2022-11-15T16:33:57;12.80;99.90
4874;DHT22;2451;49.970;9.068;2022-11-15T16:36:25;12.80;99.90
4874;DHT22;2451;49.970;9.068;2022-11-15T16:38:51;12.80;99.90
4874;DHT22;2451;49.970;9.068;2022-11-15T16:41:17;12.70;99.90
4874;DHT22;2451;49.970;9.068;2022-11-15T16:43:50;12.70;99.90
4874;DHT22;2451;49.970;9.068;2022-11-15T16:46:20;12.70;99.90
4874;DHT22;2451;49.970;9.068;2022-11-15T16:48:46;12.70;99.90
4874;DHT22;2451;49.970;9.068;2022-11-15T16:51:12;12.70;99.90
4874;DHT22;2451;49.970;9.068;2022-11-15T16:53:38;12.70;99.90
4874;DHT22;2451;49.970;9.068;2022-11-15T16:56:04;12.60;99.90
4874;DHT22;2451;49.970;9.068;2022-11-15T16:58:37;12.70;99.90
4874;DHT22;2451;49.970;9.068;2022-11-15T17:01:03;12.70;99.90
4874;DHT22;2451;49.970;9.068;2022-11-15T17:03:29;12.70;99.90
4874;DHT22;2451;49.970;9.068;2022-11-15T17:05:57;12.70;99.90
4874;DHT22;2451;49.970;9.068;2022-11-15T17:08:23;12.60;99.90
4874;DHT22;2451;49.970;9.068;2022-11-15T17:10:49;12.60;99.90
4874;DHT22;2451;49.970;9.068;2022-11-15T17:13:15;12.60;99.90
4874;DHT22;2451;49.970;9.068;2022-11-15T17:15:41;12.60;99.90
4874;DHT22;2451;49.970;9.068;2022-11-15T17:18:11;12.60;99.90
4874;DHT22;2451;49.970;9.068;2022-11-15T17:20:40;12.60;99.90
4874;DHT22;2451;49.970;9.068;2022-11-15T17:23:11;12.60;99.90
4874;DHT22;2451;49.970;9.068;2022-11-15T17:25:38;12.60;99.90
4874;DHT22;2451;49.970;9.068;2022-11-15T17:28:04;12.60;99.90
4874;DHT22;2451;49.970;9.068;2022-11-15T17:30:29;12.50;99.90
4874;DHT22;2451;49.970;9.068;2022-11-15T17:32:55;12.50;99.90
4874;DHT22;2451;49.970;9.068;2022-11-15T17:35:21;12.50;99.90
4874;DHT22;2451;49.970;9.068;2022-11-15T17:37:46;12.50;99.90
4874;DHT22;2451;49.970;9.068;2022-11-15T17:40:12;12.40;99.90
4874;DHT22;2451;49.970;9.068;2022-11-15T17:42:40;12.40;99.90
4874;DHT22;2451;49.970;9.068;2022-11-15T17:45:08;12.40;99.90
4874;DHT22;2451;49.970;9.068;2022-11-15T17:47:33;12.30;99.90
4874;DHT22;2451;49.970;9.068;2022-11-15T17:49:59;12.30;99.90
4874;DHT22;2451;49.970;9.068;2022-11-15T17:52:24;12.30;99.90
4874;DHT22;2451;49.970;9.068;2022-11-15T17:54:50;12.20;99.90
4874;DHT22;2451;49.970;9.068;2022-11-15T17:57:15;12.20;99.90
4874;DHT22;2451;49.970;9.068;2022-11-15T17:59:41;12.10;99.90
4874;DHT22;2451;49.970;9.068;2022-11-15T18:02:08;12.10;99.90
4874;DHT22;2451;49.970;9.068;2022-11-15T18:04:34;12.10;99.90